NCAR-RAP Real-Time Weather Data

Output produced by METARs form (20 January 2020  08:59 UTC)
found at http://weather.rap.ucar.edu/surface/
 
RJBB 200830Z 28015KT 9999 FEW030 BKN050 11/02 Q1017 NOSIG
 
RJBD 200800Z 35007KT 9999 FEW035 10/01 Q1016
 
RJBE 200800Z 29010KT 9999 FEW035 SCT045 BKN060 10/M00 Q1016
 
RJBT 200800Z 28006KT 230V330 9999 FEW030 BKN060 08/M02 Q1016
 
RJOA 200800Z 33008KT 9999 FEW030 BKN045 07/M03 Q1017
 
RJOB 200800Z 29010KT 250V320 9999 FEW030 SCT050 07/M02 Q1016
 
RJOC 200800Z 27013KT 9999 FEW030 BKN050 08/M01 Q1018
 
RJOH 200800Z 26016KT 9999 FEW040 BKN050 09/M02 Q1018
 
RJOI 200755Z 27009KT 9999 FEW030 BKN060 10/M02 A3009 RMK SLP190 T01001017
 
RJOK 200800Z 27010KT 9999 FEW040 11/M01 Q1016
 
RJOM 200800Z 26020KT 9000 FEW030 SCT040 10/03 Q1019
 
RJOO 200800Z 31005KT 9999 FEW030 BKN070 11/01 Q1016 RMK 1CU030 5AC070 A3002
 
RJOR 200800Z 25011KT 9999 VCSH FEW030 SCT050 BKN070 08/M01 Q1017
 
RJOT 200800Z 25011KT 9999 FEW030 SCT050 09/M00 Q1017
 
RJOW 200800Z 25009KT 9999 FEW030 BKN045 09/M00 Q1019
 
RJOY 200800Z 27011KT 9999 FEW030 SCT040 BKN050 11/01 Q1016
 
RJDC 200800Z 28013G23KT 9999 FEW030 BKN040 09/M00 Q1019
 
RJDT 200800Z 27007KT 240V330 9999 FEW035 SCT040 07/M05 Q1020
 
RJFE 200800Z 31007KT 280V350 9999 FEW035 SCT040 BKN045 10/02 Q1021
 
RJFF 200830Z 28011KT 9999 FEW040 BKN050 09/M01 Q1021 NOSIG RMK 1CU040 5SC050 A3016
 
RJFG 200800Z 32010KT 6000 FEW020 SCT030 BKN040 11/06 Q1019
 
RJFK 200800Z 32011KT 8000 FEW030 BKN040 08/03 Q1019 RMK 1CU030 5CU040 A3011
 
RJFO 200800Z 30010KT 250V330 9999 FEW030 SCT050 09/M00 Q1019
 
RJFR 200800Z 28009KT 9999 FEW025 BKN040 09/01 Q1020
 
RJFS 200800Z 29009KT 9999 SCT045 10/01 Q1020
 
RJFT 200800Z 28006KT 220V310 9999 FEW035 BKN045 09/01 Q1020
 
RJFU 200800Z 31012KT 9999 FEW030 SCT040 BKN050 10/01 Q1021
 
RJFM 200800Z 28014KT 9000 FEW030 SCT050 13/01 Q1019